createdAt,value
2023-06-04T00:03:34.843Z,101202.03
2023-06-04T00:07:36.303Z,101201.66
2023-06-04T00:11:37.941Z,101200.66
2023-06-04T00:15:39.347Z,101193.84
2023-06-04T00:19:41.750Z,101195.66
2023-06-04T00:23:43.404Z,101193.38
2023-06-04T00:27:44.886Z,101191.31
2023-06-04T00:31:46.313Z,101191.81
2023-06-04T00:35:47.795Z,101186.16
2023-06-04T00:39:49.247Z,101192.47
2023-06-04T00:43:57.074Z,101184.16
2023-06-04T00:47:59.221Z,101183.84
2023-06-04T00:52:00.673Z,101196.66
2023-06-04T00:56:02.056Z,101193.63
2023-06-04T01:00:05.466Z,101188.97
2023-06-04T01:04:13.304Z,101188.28
2023-06-04T01:08:16.302Z,101193.56
2023-06-04T01:12:17.709Z,101194.44
2023-06-04T01:16:19.274Z,101192.91
2023-06-04T01:20:48.077Z,101192.41
2023-06-04T01:24:56.608Z,101188.34
2023-06-04T01:28:59.589Z,101191.16
2023-06-04T01:33:02.088Z,101190.44
2023-06-04T01:37:03.528Z,101193.59
2023-06-04T01:41:05.124Z,101200.28
2023-06-04T01:45:07.098Z,101199.31
2023-06-04T01:49:08.560Z,101191.56
2023-06-04T01:53:09.971Z,101192.94
2023-06-04T01:57:11.346Z,101198.53
2023-06-04T02:01:12.933Z,101196.72
2023-06-04T02:05:14.602Z,101200.03
2023-06-04T02:09:16.042Z,101195.44
2023-06-04T02:13:17.493Z,101199.78
2023-06-04T02:17:18.849Z,101195.03
2023-06-04T02:21:20.342Z,101207.28
2023-06-04T02:25:22.639Z,101209.66
2023-06-04T02:29:23.918Z,101214.72
2023-06-04T02:33:25.866Z,101207.19
2023-06-04T02:37:27.172Z,101204.63
2023-06-04T02:41:28.545Z,101208.22
2023-06-04T02:45:29.975Z,101214.59
2023-06-04T02:49:31.872Z,101214.03
2023-06-04T02:53:33.310Z,101220.81
2023-06-04T02:57:34.686Z,101221.44
2023-06-04T03:01:36.559Z,101215.09
2023-06-04T03:05:40.620Z,101208.72
2023-06-04T03:09:41.935Z,101212.19
2023-06-04T03:13:43.463Z,101216.53
2023-06-04T03:17:45.263Z,101208.59
2023-06-04T03:21:47.776Z,101219.00
2023-06-04T03:25:49.228Z,101223.59
2023-06-04T03:29:50.925Z,101213.78
2023-06-04T03:33:52.395Z,101211.44
2023-06-04T03:37:53.802Z,101213.72
2023-06-04T03:41:55.945Z,101213.22
2023-06-04T03:45:57.311Z,101218.59
2023-06-04T03:49:58.632Z,101211.28
2023-06-04T03:54:00.131Z,101213.78
2023-06-04T03:58:01.701Z,101211.88
2023-06-04T04:02:03.083Z,101213.34
2023-06-04T04:06:04.468Z,101203.25
2023-06-04T04:10:06.983Z,101214.25
2023-06-04T04:14:08.301Z,101212.63
2023-06-04T04:18:11.615Z,101218.47
2023-06-04T04:22:13.969Z,101210.38
2023-06-04T04:26:17.671Z,101202.81
2023-06-04T04:30:20.530Z,101205.91
2023-06-04T04:34:22.050Z,101214.75
2023-06-04T04:38:24.824Z,101210.25
2023-06-04T04:42:26.283Z,101216.69
2023-06-04T04:46:27.622Z,101216.00
2023-06-04T04:50:28.977Z,101214.34
2023-06-04T04:54:30.397Z,101212.53
2023-06-04T04:58:31.819Z,101217.91
2023-06-04T05:02:33.271Z,101224.22
2023-06-04T05:06:34.633Z,101224.91
2023-06-04T05:10:36.906Z,101221.84
2023-06-04T05:14:38.352Z,101229.97
2023-06-04T05:18:42.618Z,101225.97
2023-06-04T05:22:44.532Z,101232.53
2023-06-04T05:26:45.887Z,101228.78
2023-06-04T05:30:49.717Z,101233.59
2023-06-04T05:34:51.029Z,101235.06
2023-06-04T05:38:58.014Z,101227.50
2023-06-04T05:42:59.370Z,101229.56
2023-06-04T05:47:00.911Z,101228.13
2023-06-04T05:51:02.235Z,101233.84
2023-06-04T05:55:03.813Z,101237.78
2023-06-04T05:59:05.194Z,101240.78
2023-06-04T06:03:07.693Z,101240.94
2023-06-04T06:07:09.551Z,101232.53
2023-06-04T06:11:11.461Z,101233.66
2023-06-04T06:15:13.393Z,101237.72
2023-06-04T06:19:14.702Z,101244.44
2023-06-04T06:23:17.619Z,101245.88
2023-06-04T06:27:19.141Z,101253.91
2023-06-04T06:31:21.482Z,101246.09
2023-06-04T06:35:22.856Z,101252.22
2023-06-04T06:39:24.294Z,101252.75
2023-06-04T06:43:25.692Z,101266.16
2023-06-04T06:47:27.035Z,101265.44
2023-06-04T06:51:28.381Z,101263.34
2023-06-04T06:55:29.733Z,101269.16
2023-06-04T06:59:32.351Z,101268.13
2023-06-04T07:03:33.940Z,101269.75
2023-06-04T07:07:35.342Z,101267.34
2023-06-04T07:11:37.010Z,101261.91
2023-06-04T07:15:38.338Z,101262.47
2023-06-04T07:19:39.704Z,101264.78
2023-06-04T07:23:41.530Z,101266.66
2023-06-04T07:27:42.922Z,101271.19
2023-06-04T07:31:44.335Z,101262.00
2023-06-04T07:35:45.686Z,101270.63
2023-06-04T07:39:47.029Z,101262.66
2023-06-04T07:43:48.320Z,101254.75
2023-06-04T07:47:49.701Z,101255.13
2023-06-04T07:51:51.025Z,101253.31
2023-06-04T07:55:52.852Z,101259.44
2023-06-04T07:59:54.203Z,101258.63
2023-06-04T08:03:56.977Z,101263.84
2023-06-04T08:07:58.441Z,101253.41
2023-06-04T08:12:01.056Z,101265.50
2023-06-04T08:16:02.382Z,101249.88
2023-06-04T08:20:07.433Z,101251.91
2023-06-04T08:24:10.037Z,101241.56
2023-06-04T08:28:11.442Z,101241.28
2023-06-04T08:32:12.841Z,101252.63
2023-06-04T08:36:14.658Z,101251.34
2023-06-04T08:40:16.048Z,101243.41
2023-06-04T08:44:18.372Z,101254.63
2023-06-04T08:48:31.224Z,101250.59
2023-06-04T08:52:37.250Z,101245.75
2023-06-04T08:56:38.592Z,101236.91
2023-06-04T09:00:40.119Z,101246.78
2023-06-04T09:04:41.628Z,101241.69
2023-06-04T09:08:51.152Z,101245.72
2023-06-04T09:13:03.718Z,101242.66
2023-06-04T09:17:05.086Z,101242.66
2023-06-04T09:21:09.594Z,101236.66
2023-06-04T09:25:21.061Z,101248.28
2023-06-04T09:29:22.446Z,101246.50
2023-06-04T09:33:24.506Z,101236.50
2023-06-04T09:37:27.780Z,101234.00
2023-06-04T09:41:29.389Z,101236.78
2023-06-04T09:45:36.321Z,101240.44
2023-06-04T09:49:44.876Z,101230.38
2023-06-04T09:53:56.992Z,101246.66
2023-06-04T09:58:00.242Z,101232.75
2023-06-04T10:02:02.712Z,101259.53
2023-06-04T10:06:06.228Z,101238.03
2023-06-04T10:10:12.124Z,101236.28
2023-06-04T10:14:26.354Z,101250.69
2023-06-04T10:18:31.749Z,101238.16
2023-06-04T10:22:34.077Z,101233.25
2023-06-04T10:26:36.484Z,101226.13
2023-06-04T10:30:37.858Z,101221.41
2023-06-04T10:34:39.345Z,101231.84
2023-06-04T10:38:46.539Z,101227.38
2023-06-04T10:42:48.209Z,101228.84
2023-06-04T10:46:49.557Z,101227.00
2023-06-04T10:50:52.748Z,101206.00
2023-06-04T10:55:05.756Z,101202.63
2023-06-04T10:59:17.927Z,101207.63
2023-06-04T11:03:19.492Z,101211.00
2023-06-04T11:07:21.073Z,101212.94
2023-06-04T11:11:22.425Z,101218.53
2023-06-04T11:15:23.826Z,101206.84
2023-06-04T11:19:25.283Z,101199.66
2023-06-04T11:23:26.768Z,101205.38
2023-06-04T11:27:36.307Z,101203.00
2023-06-04T11:31:46.390Z,101209.00
2023-06-04T11:35:47.786Z,101197.28
2023-06-04T11:39:49.139Z,101189.22
2023-06-04T11:43:50.786Z,101197.69
2023-06-04T11:47:56.750Z,101180.38
2023-06-04T11:51:58.624Z,101180.28
2023-06-04T11:56:00.249Z,101184.22
2023-06-04T12:00:11.749Z,101179.72
2023-06-04T12:04:17.586Z,101194.75
2023-06-04T12:08:19.329Z,101185.59
2023-06-04T12:12:26.252Z,101184.47
2023-06-04T12:16:28.389Z,101176.84
2023-06-04T12:20:38.096Z,101176.88
2023-06-04T12:25:00.047Z,101179.69
2023-06-04T12:29:02.641Z,101173.50
2023-06-04T12:33:04.056Z,101157.69
2023-06-04T12:37:06.989Z,101158.69
2023-06-04T12:41:08.315Z,101157.22
2023-06-04T12:45:11.374Z,101170.41
2023-06-04T12:49:13.288Z,101160.16
2023-06-04T12:53:14.588Z,101153.91
2023-06-04T12:57:16.111Z,101147.84
2023-06-04T13:01:17.487Z,101167.63
2023-06-04T13:05:18.889Z,101156.78
2023-06-04T13:09:21.564Z,101151.75
2023-06-04T13:13:23.014Z,101158.53
2023-06-04T13:17:24.377Z,101151.31
2023-06-04T13:21:25.848Z,101152.41
2023-06-04T13:25:29.378Z,101151.25
2023-06-04T13:29:34.556Z,101140.75
2023-06-04T13:33:36.254Z,101153.19
2023-06-04T13:37:37.590Z,101148.94
2023-06-04T13:41:39.174Z,101152.31
2023-06-04T13:45:41.197Z,101153.03
2023-06-04T13:49:42.493Z,101148.72
2023-06-04T13:53:43.830Z,101137.13
2023-06-04T13:57:45.141Z,101132.06
2023-06-04T14:01:46.618Z,101124.19
2023-06-04T14:05:48.066Z,101133.09
2023-06-04T14:09:55.207Z,101121.91
2023-06-04T14:13:57.071Z,101113.41
2023-06-04T14:17:58.438Z,101118.00
2023-06-04T14:21:59.925Z,101102.47
2023-06-04T14:26:01.359Z,101110.56
2023-06-04T14:30:04.468Z,101104.84
2023-06-04T14:34:07.410Z,101111.06
2023-06-04T14:38:08.741Z,101108.66
2023-06-04T14:42:10.064Z,101105.31
2023-06-04T14:46:11.753Z,101108.00
2023-06-04T14:50:13.142Z,101107.03
2023-06-04T14:54:14.532Z,101095.97
2023-06-04T14:58:16.519Z,101086.94
2023-06-04T15:02:20.421Z,101092.59
2023-06-04T15:06:22.028Z,101088.28
2023-06-04T15:10:23.436Z,101086.97
2023-06-04T15:14:24.752Z,101079.09
2023-06-04T15:18:26.170Z,101083.31
2023-06-04T15:22:28.408Z,101082.16
2023-06-04T15:26:29.903Z,101075.41
2023-06-04T15:30:31.434Z,101074.72
2023-06-04T15:34:32.755Z,101076.38
2023-06-04T15:38:34.479Z,101063.44
2023-06-04T15:42:35.785Z,101070.81
2023-06-04T15:46:37.205Z,101075.31
2023-06-04T15:50:38.595Z,101064.28
2023-06-04T15:54:46.394Z,101071.75
2023-06-04T15:58:48.162Z,101057.50
2023-06-04T16:02:49.725Z,101067.22
2023-06-04T16:06:51.120Z,101060.72
2023-06-04T16:10:52.497Z,101061.16
2023-06-04T16:14:53.835Z,101058.63
2023-06-04T16:18:55.264Z,101049.09
2023-06-04T16:22:56.644Z,101046.16
2023-06-04T16:26:58.035Z,101049.69
2023-06-04T16:30:59.468Z,101043.88
2023-06-04T16:35:03.069Z,101044.75
2023-06-04T16:39:04.980Z,101045.75
2023-06-04T16:43:07.343Z,101056.53
2023-06-04T16:47:09.265Z,101050.44
2023-06-04T16:51:11.742Z,101053.25
2023-06-04T16:55:17.218Z,101048.81
2023-06-04T16:59:18.552Z,101047.38
2023-06-04T17:03:20.105Z,101044.47
2023-06-04T17:07:21.974Z,101055.38
2023-06-04T17:11:23.321Z,101050.19
2023-06-04T17:15:24.643Z,101061.44
2023-06-04T17:19:26.064Z,101060.22
2023-06-04T17:23:27.638Z,101060.88
2023-06-04T17:27:29.041Z,101058.44
2023-06-04T17:31:31.514Z,101060.25
2023-06-04T17:35:32.889Z,101067.63
2023-06-04T17:39:34.940Z,101069.94
2023-06-04T17:43:37.121Z,101063.56
2023-06-04T17:47:38.902Z,101073.66
2023-06-04T17:51:40.416Z,101063.22
2023-06-04T17:55:41.781Z,101070.56
2023-06-04T17:59:43.079Z,101076.59
2023-06-04T18:03:44.560Z,101073.97
2023-06-04T18:07:46.419Z,101080.47
2023-06-04T18:11:47.795Z,101086.84
2023-06-04T18:15:49.375Z,101079.25
2023-06-04T18:19:52.316Z,101080.47
2023-06-04T18:23:54.228Z,101082.97
2023-06-04T18:27:55.783Z,101087.00
2023-06-04T18:31:57.223Z,101085.88
2023-06-04T18:35:58.705Z,101083.53
2023-06-04T18:40:00.024Z,101086.09
2023-06-04T18:44:01.360Z,101098.03
2023-06-04T18:48:02.946Z,101094.31
2023-06-04T18:52:04.638Z,101087.13
2023-06-04T18:56:06.091Z,101096.38
2023-06-04T19:00:09.523Z,101102.75
2023-06-04T19:04:13.517Z,101105.50
2023-06-04T19:08:14.950Z,101105.25
2023-06-04T19:12:16.257Z,101106.13
2023-06-04T19:16:17.775Z,101112.66
2023-06-04T19:20:19.218Z,101109.34
2023-06-04T19:24:23.657Z,101115.81
2023-06-04T19:28:24.961Z,101129.72
2023-06-04T19:32:29.071Z,101130.16
2023-06-04T19:36:30.587Z,101132.25
2023-06-04T19:40:32.029Z,101136.50
2023-06-04T19:44:33.477Z,101141.47
2023-06-04T19:48:34.809Z,101143.56
2023-06-04T19:52:36.292Z,101144.69
2023-06-04T19:56:38.802Z,101146.00
2023-06-04T20:00:40.190Z,101151.59
2023-06-04T20:04:42.091Z,101158.38
2023-06-04T20:08:44.246Z,101153.53
2023-06-04T20:12:46.009Z,101161.22
2023-06-04T20:16:47.443Z,101160.38
2023-06-04T20:20:53.194Z,101162.56
2023-06-04T20:24:54.631Z,101172.50
2023-06-04T20:28:59.410Z,101181.66
2023-06-04T20:33:00.894Z,101177.28
2023-06-04T20:37:04.108Z,101176.94
2023-06-04T20:41:05.674Z,101168.63
2023-06-04T20:45:07.701Z,101183.94
2023-06-04T20:49:09.128Z,101182.34
2023-06-04T20:53:10.504Z,101193.09
2023-06-04T20:57:11.792Z,101196.97
2023-06-04T21:01:13.280Z,101198.31
2023-06-04T21:05:14.768Z,101195.88
2023-06-04T21:09:16.192Z,101210.03
2023-06-04T21:13:17.820Z,101204.66
2023-06-04T21:17:19.447Z,101197.47
2023-06-04T21:21:20.945Z,101203.56
2023-06-04T21:25:22.382Z,101195.94
2023-06-04T21:29:24.088Z,101209.06
2023-06-04T21:33:25.648Z,101210.41
2023-06-04T21:37:27.034Z,101206.44
2023-06-04T21:41:28.400Z,101205.53
2023-06-04T21:45:29.730Z,101196.84
2023-06-04T21:49:31.603Z,101204.09
2023-06-04T21:53:32.977Z,101202.91
2023-06-04T21:57:34.356Z,101214.41
2023-06-04T22:01:35.922Z,101204.84
2023-06-04T22:05:37.376Z,101212.25
2023-06-04T22:09:38.726Z,101217.91
2023-06-04T22:13:40.133Z,101210.00
2023-06-04T22:17:41.779Z,101216.72
2023-06-04T22:21:43.117Z,101218.19
2023-06-04T22:25:44.570Z,101226.75
2023-06-04T22:29:46.016Z,101219.56
2023-06-04T22:33:47.365Z,101221.78
2023-06-04T22:37:48.711Z,101226.16
2023-06-04T22:41:50.102Z,101223.69
2023-06-04T22:45:51.554Z,101213.97
2023-06-04T22:49:52.953Z,101210.03
2023-06-04T22:53:56.107Z,101220.00
2023-06-04T22:58:00.131Z,101222.69
2023-06-04T23:02:01.491Z,101232.25
2023-06-04T23:06:02.871Z,101228.16
2023-06-04T23:10:06.993Z,101222.44
2023-06-04T23:14:08.385Z,101223.16
2023-06-04T23:18:10.000Z,101222.81
2023-06-04T23:22:11.476Z,101218.16
2023-06-04T23:26:12.875Z,101219.41
2023-06-04T23:30:14.814Z,101218.06
2023-06-04T23:34:16.671Z,101218.00
2023-06-04T23:38:18.021Z,101230.16
2023-06-04T23:42:19.409Z,101231.13
2023-06-04T23:46:21.652Z,101240.69
2023-06-04T23:50:23.032Z,101242.75
2023-06-04T23:54:24.465Z,101247.44
2023-06-04T23:58:26.013Z,101246.13
